Time;durP1;ratioP1;P1;durP2;ratioP2;P2;SDS_P1;SDS_P2;PMS_P1;PMS_P2;Temp;Humidity;BMP_temperature;BMP_pressure;BME280_temperature;BME280_humidity;BME280_pressure;Samples;Min_cycle;Max_cycle;Signal;HPM_P1;HPM_P2
2023/10/04 00:00:49;;;;;;;6.18;3.63;;;;;;;10.82;100.00;102163.91;5091366;28;20033;-75
2023/10/04 00:03:15;;;;;;;7.22;3.50;;;;;;;10.86;100.00;102170.63;5091841;28;20027;-75
2023/10/04 00:05:41;;;;;;;6.47;3.30;;;;;;;10.83;100.00;102167.41;5092938;28;20040;-75
2023/10/04 00:08:09;;;;;;;8.07;3.42;;;;;;;10.77;100.00;102180.53;5091956;28;20498;-75
2023/10/04 00:10:35;;;;;;;7.15;3.45;;;;;;;10.80;100.00;102179.38;5089668;28;20069;-75
2023/10/04 00:13:00;;;;;;;5.85;3.40;;;;;;;10.76;100.00;102178.88;5090945;28;20023;-75
2023/10/04 00:15:27;;;;;;;8.57;3.70;;;;;;;10.72;100.00;102182.91;5092471;28;20387;-75
2023/10/04 00:17:52;;;;;;;6.53;3.80;;;;;;;10.75;100.00;102182.56;5095326;28;20032;-75
2023/10/04 00:20:18;;;;;;;6.97;3.13;;;;;;;10.68;100.00;102188.78;5091189;28;20039;-75
2023/10/04 00:22:44;;;;;;;7.35;3.92;;;;;;;10.66;100.00;102194.31;5090750;28;20109;-75
2023/10/04 00:25:11;;;;;;;8.85;3.70;;;;;;;10.65;100.00;102192.63;5089002;28;20036;-75
2023/10/04 00:27:40;;;;;;;7.55;3.28;;;;;;;10.79;100.00;102195.69;5097595;28;20030;-75
2023/10/04 00:30:10;;;;;;;8.15;3.38;;;;;;;10.71;100.00;102197.38;5094998;28;20035;-76
2023/10/04 00:32:38;;;;;;;6.40;3.20;;;;;;;10.79;100.00;102195.69;5075452;28;20028;-75
2023/10/04 00:35:09;;;;;;;6.97;3.13;;;;;;;10.73;100.00;102202.59;5091947;28;20384;-75
2023/10/04 00:37:35;;;;;;;5.90;3.10;;;;;;;10.80;100.00;102206.31;5093433;28;20146;-75
2023/10/04 00:40:00;;;;;;;9.50;3.55;;;;;;;10.78;100.00;102213.72;5091764;28;20460;-75
2023/10/04 00:42:26;;;;;;;8.10;3.50;;;;;;;10.69;100.00;102202.06;5090176;28;20026;-75
2023/10/04 00:44:52;;;;;;;8.10;3.45;;;;;;;10.67;100.00;102209.47;5090389;28;20054;-75
2023/10/04 00:47:18;;;;;;;7.38;3.40;;;;;;;10.71;100.00;102208.16;5093295;28;20028;-76
2023/10/04 00:49:47;;;;;;;8.00;3.10;;;;;;;10.72;100.00;102217.91;5071688;28;20042;-75
2023/10/04 00:52:12;;;;;;;7.35;3.55;;;;;;;10.72;100.00;102219.75;5073341;28;20095;-75
2023/10/04 00:54:40;;;;;;;6.38;3.08;;;;;;;10.67;100.00;102212.16;5076049;28;20043;-75
2023/10/04 00:57:06;;;;;;;4.78;2.95;;;;;;;10.68;100.00;102219.25;5077410;28;20107;-75
2023/10/04 00:59:31;;;;;;;5.47;3.42;;;;;;;10.64;100.00;102220.56;5066012;28;20036;-75
2023/10/04 01:01:57;;;;;;;9.38;3.28;;;;;;;10.64;100.00;102217.88;5100153;28;20421;-75
2023/10/04 01:04:27;;;;;;;7.30;3.30;;;;;;;10.62;100.00;102214.50;5096720;28;20032;-77
2023/10/04 01:06:52;;;;;;;7.82;3.25;;;;;;;10.59;100.00;102209.47;5093426;28;20047;-75
2023/10/04 01:09:19;;;;;;;8.82;3.60;;;;;;;10.65;100.00;102208.78;5093645;28;20384;-75
2023/10/04 01:11:49;;;;;;;7.85;3.50;;;;;;;10.65;100.00;102208.78;5089283;28;20036;-75
2023/10/04 01:14:26;;;;;;;7.00;3.25;;;;;;;10.70;100.00;102209.16;5089987;28;20020;-75
2023/10/04 01:16:52;;;;;;;9.43;3.00;;;;;;;10.72;100.00;102220.59;5091487;28;20035;-75
2023/10/04 01:19:18;;;;;;;6.28;3.35;;;;;;;10.65;100.00;102222.25;5089675;28;20120;-74
2023/10/04 01:21:45;;;;;;;7.97;3.30;;;;;;;10.67;100.00;102222.94;5087241;28;20464;-75
2023/10/04 01:24:11;;;;;;;8.05;3.10;;;;;;;10.67;100.00;102228.31;5091221;28;20024;-75
2023/10/04 01:26:37;;;;;;;6.95;3.03;;;;;;;10.69;100.00;102220.94;5088725;28;20372;-76
2023/10/04 01:29:08;;;;;;;9.80;3.13;;;;;;;10.73;100.00;102224.13;5071598;28;20043;-76
2023/10/04 01:31:34;;;;;;;6.32;3.33;;;;;;;10.79;100.00;102225.31;5073802;28;20093;-76
2023/10/04 01:33:59;;;;;;;7.35;2.90;;;;;;;10.82;100.00;102233.06;5088464;28;20020;-76
2023/10/04 01:36:25;;;;;;;3.42;2.42;;;;;;;10.77;100.00;102230.88;5088677;28;20024;-76
2023/10/04 01:38:51;;;;;;;7.80;2.97;;;;;;;10.71;100.00;102229.69;5089067;28;20379;-76
2023/10/04 01:41:17;;;;;;;8.60;3.00;;;;;;;10.80;100.00;102237.78;5089405;28;20039;-76
2023/10/04 01:43:42;;;;;;;5.30;2.67;;;;;;;10.68;100.00;102234.56;5090154;28;20063;-76
2023/10/04 01:46:08;;;;;;;6.60;2.88;;;;;;;10.69;100.00;102226.31;5089784;28;20467;-76
2023/10/04 01:48:36;;;;;;;8.38;2.95;;;;;;;10.72;100.00;102233.22;5090065;28;20016;-76
2023/10/04 01:51:06;;;;;;;8.00;3.10;;;;;;;10.79;100.00;102228.88;5087649;28;20024;-76
2023/10/04 01:53:34;;;;;;;6.18;3.22;;;;;;;10.73;100.00;102230.38;5073211;28;20032;-76
2023/10/04 01:56:00;;;;;;;8.88;3.22;;;;;;;10.70;100.00;102225.31;5072316;28;20032;-75
2023/10/04 01:58:25;;;;;;;5.70;2.85;;;;;;;10.74;100.00;102226.69;5091252;28;20115;-76
2023/10/04 02:00:54;;;;;;;6.88;2.80;;;;;;;10.75;100.00;102222.97;5090225;28;20027;-76
2023/10/04 02:03:20;;;;;;;7.03;2.88;;;;;;;10.81;100.00;102220.63;5091298;28;20028;-76
2023/10/04 02:05:50;;;;;;;7.28;2.72;;;;;;;10.74;100.00;102229.38;5089505;28;20127;-76
2023/10/04 02:08:18;;;;;;;7.57;3.20;;;;;;;10.80;100.00;102221.63;5090208;28;20438;-76
2023/10/04 02:10:45;;;;;;;9.38;3.30;;;;;;;10.79;100.00;102228.00;5089504;28;20047;-76
2023/10/04 02:13:15;;;;;;;7.07;2.80;;;;;;;10.83;100.00;102222.16;5088004;28;20020;-76
2023/10/04 02:15:41;;;;;;;7.22;2.88;;;;;;;10.74;100.00;102232.06;5086875;28;20032;-76
2023/10/04 02:18:07;;;;;;;6.38;2.88;;;;;;;10.76;100.00;102221.97;5064066;28;20105;-76
2023/10/04 02:20:33;;;;;;;9.93;2.80;;;;;;;10.75;100.00;102225.66;5088063;28;20796;-76
2023/10/04 02:22:59;;;;;;;6.90;2.92;;;;;;;10.79;100.00;102225.31;5090618;28;20115;-75
2023/10/04 02:25:28;;;;;;;8.15;2.80;;;;;;;10.81;100.00;102217.91;5073571;28;20596;-75
2023/10/04 02:27:55;;;;;;;7.47;2.72;;;;;;;10.85;100.00;102222.84;5089178;28;20468;-75
2023/10/04 02:30:26;;;;;;;8.80;2.85;;;;;;;10.83;100.00;102221.28;5090943;28;20099;-74
2023/10/04 02:32:54;;;;;;;7.18;3.00;;;;;;;10.92;100.00;102225.72;5088453;28;20032;-74
2023/10/04 02:35:34;;;;;;;5.50;2.80;;;;;;;10.90;100.00;102235.81;5090578;28;20027;-74
2023/10/04 02:38:00;;;;;;;6.95;2.70;;;;;;;10.87;100.00;102231.56;5089725;28;20020;-74
2023/10/04 02:40:32;;;;;;;5.88;2.58;;;;;;;10.88;100.00;102229.72;5082334;28;20043;-74
2023/10/04 02:42:57;;;;;;;7.35;2.72;;;;;;;10.87;100.00;102234.25;5090147;28;20055;-75
2023/10/04 02:45:24;;;;;;;5.88;3.28;;;;;;;10.88;100.00;102235.13;5090748;28;20055;-74
2023/10/04 02:47:51;;;;;;;6.15;2.63;;;;;;;10.94;100.00;102237.16;5089754;28;20085;-74
2023/10/04 02:50:17;;;;;;;7.00;2.83;;;;;;;10.94;100.00;102234.47;5085641;28;20031;-74
2023/10/04 02:52:44;;;;;;;4.63;2.60;;;;;;;10.96;100.00;102231.59;5090488;28;20091;-74
2023/10/04 02:55:09;;;;;;;5.70;2.90;;;;;;;11.02;100.00;102242.56;5087603;28;20027;-74
2023/10/04 02:57:34;;;;;;;8.70;2.97;;;;;;;11.03;100.00;102238.03;5068816;28;20464;-74
2023/10/04 03:00:10;;;;;;;4.57;2.42;;;;;;;11.04;100.00;102240.53;5089079;28;20027;-74
2023/10/04 03:02:36;;;;;;;6.55;3.17;;;;;;;10.96;100.00;102234.28;5090399;28;20054;-74
2023/10/04 03:05:02;;;;;;;10.02;2.83;;;;;;;10.93;100.00;102243.56;5088669;28;20036;-74
2023/10/04 03:07:27;;;;;;;6.82;3.15;;;;;;;10.99;100.00;102247.44;5090699;28;20031;-74
2023/10/04 03:09:54;;;;;;;6.10;2.85;;;;;;;11.05;100.00;102236.84;5092150;28;20103;-74
2023/10/04 03:12:19;;;;;;;6.15;2.70;;;;;;;11.17;100.00;102244.59;5092659;28;20047;-74
2023/10/04 03:14:45;;;;;;;4.93;2.60;;;;;;;11.12;100.00;102244.28;5094526;28;20024;-74
2023/10/04 03:17:15;;;;;;;4.25;2.67;;;;;;;11.07;100.00;102242.91;5096650;28;20032;-74
2023/10/04 03:19:41;;;;;;;7.30;2.88;;;;;;;11.12;100.00;102257.75;5093805;28;20020;-73
2023/10/04 03:22:10;;;;;;;6.32;2.97;;;;;;;11.18;100.00;102257.06;5091570;28;20031;-74
2023/10/04 03:24:36;;;;;;;8.20;2.80;;;;;;;11.26;100.00;102248.16;5093035;28;20131;-73
2023/10/04 03:27:05;;;;;;;6.88;2.80;;;;;;;11.20;100.00;102260.44;5093672;28;20080;-74
2023/10/04 03:29:30;;;;;;;8.88;2.92;;;;;;;11.20;100.00;102255.91;5093484;28;20115;-74
2023/10/04 03:31:55;;;;;;;8.50;3.08;;;;;;;11.23;100.00;102250.16;5091924;28;20073;-75
2023/10/04 03:34:22;;;;;;;9.20;2.97;;;;;;;11.23;100.00;102252.84;5092858;28;20019;-74
2023/10/04 03:36:48;;;;;;;5.88;2.80;;;;;;;11.22;100.00;102253.03;5096587;28;20118;-73
2023/10/04 03:39:16;;;;;;;7.95;3.03;;;;;;;11.20;100.00;102257.75;5094680;28;20046;-75
2023/10/04 03:41:42;;;;;;;9.57;2.95;;;;;;;11.21;100.00;102252.19;5090033;28;20429;-76
2023/10/04 03:44:08;;;;;;;10.00;3.13;;;;;;;11.14;100.00;102255.69;5100710;28;20055;-76
2023/10/04 03:46:33;;;;;;;6.70;2.60;;;;;;;11.21;100.00;102257.56;5091564;28;20028;-77
2023/10/04 03:48:58;;;;;;;6.18;2.70;;;;;;;11.25;100.00;102254.53;5097287;28;20043;-77
2023/10/04 03:51:24;;;;;;;9.50;3.40;;;;;;;11.11;100.00;102264.16;5096098;28;20032;-77
2023/10/04 03:53:53;;;;;;;4.75;2.72;;;;;;;11.13;100.00;102267.50;5095993;28;20032;-77
2023/10/04 03:56:22;;;;;;;11.73;3.10;;;;;;;10.97;100.00;102271.84;5075074;28;20032;-77
2023/10/04 03:58:48;;;;;;;6.50;2.90;;;;;;;10.96;100.00;102272.84;5092997;28;20024;-76
2023/10/04 04:01:14;;;;;;;9.10;3.00;;;;;;;10.90;100.00;102274.34;5084903;28;20085;-76
2023/10/04 04:03:40;;;;;;;6.20;3.22;;;;;;;10.83;100.00;102262.56;5093747;28;20016;-76
2023/10/04 04:06:05;;;;;;;8.68;3.22;;;;;;;10.83;100.00;102267.09;5093028;28;20081;-75
2023/10/04 04:08:31;;;;;;;9.63;3.17;;;;;;;10.78;100.00;102270.28;5092050;28;20020;-73
2023/10/04 04:10:56;;;;;;;8.98;3.15;;;;;;;10.77;100.00;102272.13;5091515;28;20054;-75
2023/10/04 04:13:23;;;;;;;8.57;3.08;;;;;;;10.73;100.00;102264.53;5092387;28;20412;-78
2023/10/04 04:15:49;;;;;;;6.40;2.92;;;;;;;10.70;100.00;102267.53;5093309;28;20230;-78
2023/10/04 04:18:23;;;;;;;7.13;3.30;;;;;;;10.69;100.00;102266.72;5092588;28;20032;-76
2023/10/04 04:20:49;;;;;;;9.48;3.22;;;;;;;10.65;100.00;102278.81;5091000;28;20044;-75
2023/10/04 04:23:17;;;;;;;8.68;3.13;;;;;;;10.62;100.00;102284.53;5095249;28;20026;-78
2023/10/04 04:25:43;;;;;;;7.95;3.22;;;;;;;10.59;100.00;102284.88;5093109;28;20019;-75
2023/10/04 04:28:12;;;;;;;6.43;3.33;;;;;;;10.58;100.00;102269.72;5092227;28;20028;-78
2023/10/04 04:30:38;;;;;;;8.52;3.60;;;;;;;10.60;100.00;102259.59;5092755;28;20390;-77
2023/10/04 04:33:04;;;;;;;8.23;3.53;;;;;;;10.65;100.00;102256.44;5096461;28;20479;-74
2023/10/04 04:38:24;;;;;;;7.18;3.00;;;;;;;10.56;100.00;102258.25;5095066;28;20039;-75
2023/10/04 04:40:54;;;;;;;10.43;3.67;;;;;;;10.58;100.00;102261.63;5102038;28;20020;-75
2023/10/04 04:45:50;;;;;;;10.40;3.70;;;;;;;10.57;100.00;102259.94;5097272;28;20089;-75
2023/10/04 04:48:18;;;;;;;9.75;4.00;;;;;;;10.42;100.00;102274.00;5092580;28;20028;-75
2023/10/04 04:50:43;;;;;;;14.45;3.80;;;;;;;10.50;100.00;102265.09;5093971;28;20032;-75
2023/10/04 04:53:14;;;;;;;9.15;3.67;;;;;;;10.43;100.00;102274.84;5098726;28;20049;-75
2023/10/04 04:55:42;;;;;;;10.07;3.42;;;;;;;10.41;100.00;102271.47;5087439;28;20096;-75
2023/10/04 04:58:07;;;;;;;8.50;3.67;;;;;;;10.35;100.00;102261.31;5095677;28;20044;-75
2023/10/04 05:00:33;;;;;;;10.50;3.95;;;;;;;10.43;100.00;102264.91;5092605;28;20039;-75
2023/10/04 05:03:00;;;;;;;9.95;3.80;;;;;;;10.45;100.00;102249.44;5093207;28;20459;-75
2023/10/04 05:05:28;;;;;;;10.02;3.72;;;;;;;10.44;100.00;102252.31;5094065;28;20034;-75
2023/10/04 05:07:56;;;;;;;13.23;3.83;;;;;;;10.40;100.00;102245.56;5078160;28;20031;-76
2023/10/04 05:10:25;;;;;;;6.03;3.40;;;;;;;10.39;100.00;102247.41;5096263;28;20020;-75
2023/10/04 05:12:52;;;;;;;9.80;3.60;;;;;;;10.42;100.00;102251.63;5093775;28;20043;-76
2023/10/04 05:15:31;;;;;;;7.88;3.38;;;;;;;10.41;100.00;102253.47;5092849;28;20062;-75
2023/10/04 05:17:58;;;;;;;8.23;3.75;;;;;;;10.36;100.00;102260.31;5092436;28;20028;-75
2023/10/04 05:20:25;;;;;;;12.85;4.25;;;;;;;10.35;100.00;102264.00;5088157;28;20097;-75
2023/10/04 05:22:50;;;;;;;9.55;3.50;;;;;;;10.33;100.00;102266.84;5094150;28;20043;-74
2023/10/04 05:25:16;;;;;;;8.55;3.60;;;;;;;10.29;100.00;102273.56;5094382;28;20024;-76
2023/10/04 05:27:43;;;;;;;10.68;4.15;;;;;;;10.32;100.00;102278.63;5095112;28;20023;-75
2023/10/04 05:30:15;;;;;;;8.27;3.25;;;;;;;10.23;100.00;102274.22;5092692;28;20047;-76
2023/10/04 05:32:41;;;;;;;8.88;3.60;;;;;;;10.23;100.00;102280.44;5068822;28;20020;-76
2023/10/04 05:35:12;;;;;;;8.13;3.90;;;;;;;10.22;100.00;102284.13;5092246;28;20401;-76
2023/10/04 05:37:38;;;;;;;10.32;3.58;;;;;;;10.25;100.00;102291.88;5093050;28;20020;-76
2023/10/04 05:40:09;;;;;;;10.48;3.88;;;;;;;10.28;100.00;102307.72;5091798;28;20096;-76
2023/10/04 05:42:34;;;;;;;7.00;3.70;;;;;;;10.22;100.00;102310.22;5092381;28;20082;-76
2023/10/04 05:45:00;;;;;;;9.07;3.80;;;;;;;10.20;100.00;102312.22;5091884;28;20028;-76
2023/10/04 05:47:25;;;;;;;8.75;3.55;;;;;;;10.24;100.00;102318.94;5092524;28;20038;-76
2023/10/04 05:49:51;;;;;;;11.40;3.80;;;;;;;10.10;100.00;102323.91;5092579;28;20413;-76
2023/10/04 05:52:17;;;;;;;7.75;3.92;;;;;;;10.00;100.00;102318.63;5090955;28;20028;-75
2023/10/04 05:54:42;;;;;;;9.57;3.70;;;;;;;10.01;100.00;102319.47;5092259;28;20335;-75
2023/10/04 05:57:08;;;;;;;8.63;3.65;;;;;;;10.08;100.00;102328.59;5091745;28;20043;-75
2023/10/04 05:59:34;;;;;;;11.30;3.80;;;;;;;10.05;100.00;102331.63;5091600;28;20032;-75
2023/10/04 06:02:01;;;;;;;8.13;3.70;;;;;;;10.02;100.00;102327.38;5092034;28;20399;-75
2023/10/04 06:04:27;;;;;;;9.00;3.60;;;;;;;10.13;100.00;102328.16;5091845;28;20036;-75
2023/10/04 06:06:52;;;;;;;9.15;3.70;;;;;;;10.08;100.00;102325.91;5092591;28;20027;-75
2023/10/04 06:09:27;;;;;;;8.18;4.43;;;;;;;10.13;100.00;102339.75;5088942;28;20369;-75
2023/10/04 06:11:53;;;;;;;13.45;4.03;;;;;;;10.14;100.00;102344.13;5084008;28;20016;-75
2023/10/04 06:14:18;;;;;;;10.43;4.38;;;;;;;10.20;100.00;102344.50;5092364;28;20377;-75
2023/10/04 06:16:44;;;;;;;9.30;3.88;;;;;;;10.38;100.00;102345.34;5091439;28;20034;-75
2023/10/04 06:19:09;;;;;;;7.20;3.80;;;;;;;10.68;100.00;102343.13;5091756;28;20480;-75
2023/10/04 06:21:34;;;;;;;8.02;3.88;;;;;;;10.91;100.00;102356.03;5091651;28;20039;-75
2023/10/04 06:24:00;;;;;;;8.43;3.60;;;;;;;11.32;100.00;102356.16;5090827;28;20012;-75
2023/10/04 06:26:25;;;;;;;10.60;5.93;;;;;;;11.68;100.00;102363.13;5091536;28;20047;-74
2023/10/04 06:28:50;;;;;;;9.57;6.25;;;;;;;12.00;100.00;102361.50;5091698;28;20028;-75
2023/10/04 06:31:17;;;;;;;6.35;3.40;;;;;;;12.47;98.27;102359.91;5091637;28;20032;-75
2023/10/04 06:33:43;;;;;;;7.50;3.53;;;;;;;12.95;94.66;102364.47;5072927;28;20083;-75
2023/10/04 06:36:09;;;;;;;8.40;3.88;;;;;;;13.39;91.17;102363.06;5092216;28;20473;-76
2023/10/04 06:38:35;;;;;;;10.65;3.35;;;;;;;13.65;89.21;102360.06;5090615;28;20375;-75
2023/10/04 06:41:03;;;;;;;8.50;3.83;;;;;;;13.95;86.40;102363.72;5091027;28;20032;-75
2023/10/04 06:43:29;;;;;;;7.97;3.40;;;;;;;13.95;86.43;102362.84;5095910;28;20044;-75
2023/10/04 06:45:55;;;;;;;9.45;3.90;;;;;;;14.18;85.61;102362.00;5095550;28;20098;-75
2023/10/04 06:48:20;;;;;;;8.90;3.85;;;;;;;14.08;84.93;102373.94;5094687;28;20139;-75
2023/10/04 06:50:49;;;;;;;11.30;3.70;;;;;;;13.78;86.76;102373.00;5095919;28;20031;-75
2023/10/04 06:53:15;;;;;;;6.07;3.80;;;;;;;14.57;83.71;102371.75;5095972;28;20396;-75
2023/10/04 06:55:41;;;;;;;8.93;3.72;;;;;;;14.10;85.00;102385.44;5095507;28;20030;-75
2023/10/04 06:58:11;;;;;;;10.25;3.55;;;;;;;14.48;83.82;102389.13;5096411;28;20043;-75
2023/10/04 07:00:37;;;;;;;9.68;4.00;;;;;;;14.70;81.07;102392.81;5096255;28;20020;-75
2023/10/04 07:03:03;;;;;;;11.55;3.75;;;;;;;14.42;82.65;102395.28;5094464;28;20035;-75
2023/10/04 07:05:32;;;;;;;11.27;3.72;;;;;;;14.75;82.47;102394.97;5095808;28;20028;-75
2023/10/04 07:10:33;;;;;;;10.87;4.00;;;;;;;16.02;76.18;102401.03;5141520;22;20078;-76
2023/10/04 07:12:59;;;;;;;12.15;3.83;;;;;;;15.87;75.00;102401.09;5075965;28;20024;-75
2023/10/04 07:15:27;;;;;;;10.38;3.42;;;;;;;16.17;75.46;102399.09;5075366;28;20031;-75
2023/10/04 07:17:53;;;;;;;12.00;3.92;;;;;;;16.11;75.92;102404.47;5074393;28;20056;-75
2023/10/04 07:20:18;;;;;;;9.90;4.05;;;;;;;16.59;72.93;102409.22;5074652;28;20031;-75
2023/10/04 07:22:58;;;;;;;9.90;4.43;;;;;;;16.19;73.90;102401.59;5075486;28;20074;-75
2023/10/04 07:25:27;;;;;;;10.70;3.95;;;;;;;16.47;72.55;102409.75;5074378;28;20144;-75
2023/10/04 07:27:53;;;;;;;9.40;4.47;;;;;;;15.89;75.77;102405.28;5075220;28;20025;-75
2023/10/04 07:30:19;;;;;;;8.80;3.65;;;;;;;16.54;73.16;102406.25;5074586;28;20490;-75
2023/10/04 07:32:46;;;;;;;13.02;4.43;;;;;;;16.49;73.06;102404.13;5074537;28;20506;-76
2023/10/04 07:35:13;;;;;;;6.68;4.05;;;;;;;17.89;68.53;102408.47;5073909;28;20028;-75
2023/10/04 07:37:39;;;;;;;10.15;4.70;;;;;;;17.92;67.73;102402.63;5074580;28;20032;-76
2023/10/04 07:40:09;;;;;;;13.40;4.78;;;;;;;18.61;64.70;102414.13;5073608;28;20464;-75
2023/10/04 07:42:38;;;;;;;11.70;4.20;;;;;;;17.82;66.66;102416.63;5074783;28;20024;-76
2023/10/04 07:45:05;;;;;;;9.88;4.30;;;;;;;17.88;67.16;102415.81;5074421;28;20024;-75
2023/10/04 07:47:31;;;;;;;6.85;3.22;;;;;;;18.97;63.28;102422.06;5073898;28;20072;-76
2023/10/04 07:49:56;;;;;;;9.88;3.75;;;;;;;18.59;63.57;102426.31;5073407;28;20032;-75
2023/10/04 07:52:22;;;;;;;9.15;3.53;;;;;;;18.96;63.19;102415.78;5074577;28;20043;-75
2023/10/04 07:54:47;;;;;;;10.93;3.72;;;;;;;18.65;62.99;102425.44;5074121;28;20031;-75
2023/10/04 07:57:12;;;;;;;9.65;3.50;;;;;;;18.53;64.74;102421.72;5074869;28;20036;-75
2023/10/04 07:59:41;;;;;;;11.68;3.78;;;;;;;19.64;60.48;102419.84;5074172;28;20380;-75
2023/10/04 08:02:06;;;;;;;13.50;3.90;;;;;;;18.29;64.02;102433.06;5074247;28;20037;-75
2023/10/04 08:04:33;;;;;;;9.75;3.63;;;;;;;17.65;67.32;102428.97;5073493;28;20027;-75
2023/10/04 08:06:59;;;;;;;11.52;3.90;;;;;;;18.27;65.80;102423.38;5073130;28;20028;-75
2023/10/04 08:09:27;;;;;;;8.07;3.47;;;;;;;18.89;63.25;102426.66;5074047;28;20047;-75
2023/10/04 08:11:52;;;;;;;9.38;3.75;;;;;;;19.30;61.55;102421.09;5056558;28;20396;-75
2023/10/04 08:14:20;;;;;;;9.70;3.78;;;;;;;19.43;62.02;102421.00;5074769;28;20025;-75
2023/10/04 08:16:46;;;;;;;11.65;3.42;;;;;;;18.97;63.04;102428.38;5074823;28;20032;-75
2023/10/04 08:19:13;;;;;;;12.40;3.60;;;;;;;19.27;62.01;102424.25;5074447;28;20379;-75
2023/10/04 08:21:38;;;;;;;8.35;3.60;;;;;;;18.90;64.04;102422.88;5080359;28;20042;-76
2023/10/04 08:24:04;;;;;;;10.65;3.60;;;;;;;19.54;60.97;102423.06;5079029;28;20025;-76
2023/10/04 08:26:31;;;;;;;10.70;4.15;;;;;;;20.12;59.21;102420.38;5078712;28;20032;-76
2023/10/04 08:28:56;;;;;;;11.45;3.92;;;;;;;19.37;61.60;102421.91;5074535;28;20454;-75
2023/10/04 08:31:21;;;;;;;12.48;4.55;;;;;;;19.70;61.35;102431.78;5073702;28;20035;-75
2023/10/04 08:33:48;;;;;;;12.15;4.78;;;;;;;19.81;61.37;102427.53;5072550;28;20028;-76
2023/10/04 08:36:15;;;;;;;17.52;8.07;;;;;;;19.46;62.53;102426.03;5072919;28;20507;-75
2023/10/04 08:38:45;;;;;;;12.35;4.68;;;;;;;19.03;62.70;102429.41;5072525;28;20029;-75
2023/10/04 08:41:11;;;;;;;11.35;4.35;;;;;;;19.12;63.38;102430.00;5072731;28;20043;-75
2023/10/04 08:43:37;;;;;;;14.98;5.93;;;;;;;19.23;63.72;102421.97;5073592;28;20033;-75
2023/10/04 08:46:02;;;;;;;10.70;5.40;;;;;;;19.67;61.21;102433.09;5073088;28;20035;-75
2023/10/04 08:48:29;;;;;;;12.38;4.28;;;;;;;19.58;60.24;102428.09;5071145;28;20029;-76
2023/10/04 08:51:11;;;;;;;12.48;4.05;;;;;;;18.67;64.09;102430.72;5073906;28;20354;-75
2023/10/04 08:53:56;;;;;;;13.63;4.85;;;;;;;19.18;63.36;102435.41;5080901;28;20044;-75
2023/10/04 08:56:23;;;;;;;11.30;3.95;;;;;;;19.70;62.38;102434.53;5083796;28;20090;-75
2023/10/04 08:58:48;;;;;;;9.18;4.40;;;;;;;19.65;61.99;102442.53;5074685;28;20427;-75
2023/10/04 09:01:15;;;;;;;7.78;3.83;;;;;;;19.38;61.56;102446.25;5039088;28;20020;-75
2023/10/04 09:03:41;;;;;;;12.48;4.05;;;;;;;18.63;64.02;102443.91;5071029;28;20028;-75
2023/10/04 09:06:10;;;;;;;10.57;4.10;;;;;;;19.40;62.13;102437.84;5055151;28;20090;-75
2023/10/04 09:08:37;;;;;;;10.07;3.75;;;;;;;19.42;63.13;102443.09;5071427;28;20465;-75
2023/10/04 09:11:10;;;;;;;10.75;4.00;;;;;;;19.73;61.50;102435.97;5071924;28;20036;-75
2023/10/04 09:13:44;;;;;;;11.95;4.28;;;;;;;20.03;61.59;102438.13;5072927;28;20033;-75
2023/10/04 09:16:20;;;;;;;10.52;4.00;;;;;;;20.73;58.80;102434.34;5069857;28;20071;-75
2023/10/04 09:18:45;;;;;;;;;;;;;;;20.58;57.37;102431.97;5072758;28;20354;-75
2023/10/04 09:21:15;;;;;;;9.67;3.90;;;;;;;20.21;58.54;102434.59;5074390;28;19919;-76
2023/10/04 09:23:40;;;;;;;8.43;3.75;;;;;;;20.74;57.40;102430.50;5073230;28;20024;-76
2023/10/04 09:26:14;;;;;;;13.07;4.00;;;;;;;20.54;58.33;102428.00;5073330;28;20039;-75
2023/10/04 09:28:40;;;;;;;12.98;4.07;;;;;;;20.26;58.12;102421.13;5074821;28;20574;-76
2023/10/04 09:31:12;;;;;;;12.48;4.25;;;;;;;20.18;58.23;102419.50;5057207;28;20032;-76
2023/10/04 09:33:38;;;;;;;8.88;3.63;;;;;;;19.96;59.61;102419.03;5074277;28;20048;-76
2023/10/04 09:36:04;;;;;;;10.27;3.95;;;;;;;20.00;59.77;102420.25;5075891;28;20041;-76
2023/10/04 09:38:31;;;;;;;9.05;4.28;;;;;;;19.65;60.86;102434.34;5072330;28;20048;-76
2023/10/04 09:40:57;;;;;;;8.05;3.83;;;;;;;18.46;65.04;102435.34;5071746;28;20050;-76
2023/10/04 09:43:36;;;;;;;11.63;3.58;;;;;;;19.31;63.37;102434.53;5072345;28;20476;-76
2023/10/04 09:46:12;;;;;;;11.10;4.07;;;;;;;20.07;61.13;102437.47;5071264;28;20086;-76
2023/10/04 09:48:40;;;;;;;9.93;3.80;;;;;;;19.32;63.25;102435.34;5072151;28;20025;-75
2023/10/04 09:51:06;;;;;;;11.98;4.22;;;;;;;19.11;63.44;102431.88;5071729;28;20036;-75
2023/10/04 09:53:32;;;;;;;11.27;3.95;;;;;;;19.36;62.51;102431.16;5072026;28;20044;-75
2023/10/04 09:56:02;;;;;;;14.50;4.03;;;;;;;19.03;63.70;102432.94;5071692;28;20094;-76
2023/10/04 09:58:29;;;;;;;11.10;3.88;;;;;;;18.88;65.29;102437.78;5072033;28;20028;-75
2023/10/04 10:01:00;;;;;;;10.73;3.97;;;;;;;19.01;64.68;102440.50;5071218;28;20020;-75
2023/10/04 10:03:27;;;;;;;10.68;3.72;;;;;;;19.53;63.41;102426.84;5047545;28;20021;-76
2023/10/04 10:05:54;;;;;;;10.18;3.60;;;;;;;19.26;62.49;102436.22;5072519;28;20052;-75
2023/10/04 10:08:19;;;;;;;12.60;4.05;;;;;;;18.57;65.52;102450.25;5056148;28;20036;-76
2023/10/04 10:10:46;;;;;;;9.95;3.75;;;;;;;17.97;67.88;102438.25;5038815;28;20025;-75
2023/10/04 10:13:11;;;;;;;13.45;5.07;;;;;;;18.49;66.09;102448.56;5038568;28;20124;-75
2023/10/04 10:15:38;;;;;;;10.77;4.07;;;;;;;19.05;64.58;102438.22;5037641;28;20165;-75
2023/10/04 10:18:07;;;;;;;12.75;4.00;;;;;;;18.63;66.25;102442.03;5074983;28;20561;-75
2023/10/04 10:20:32;;;;;;;11.70;4.38;;;;;;;18.69;64.98;102431.34;5076101;28;20020;-75
2023/10/04 10:22:58;;;;;;;12.68;3.95;;;;;;;18.23;67.15;102450.25;5075647;28;20027;-75
2023/10/04 10:25:25;;;;;;;13.10;3.93;;;;;;;18.22;67.84;102448.56;5075671;28;20032;-76
2023/10/04 10:27:53;;;;;;;10.30;3.95;;;;;;;18.56;68.20;102446.66;5058231;28;20032;-75
2023/10/04 10:30:19;;;;;;;11.50;4.13;;;;;;;18.16;68.70;102443.97;5056691;28;20433;-75
2023/10/04 10:33:00;;;;;;;10.95;4.20;;;;;;;17.72;69.34;102451.63;5040363;28;20028;-75
2023/10/04 10:35:56;;;;;;;12.80;3.92;;;;;;;18.01;67.03;102444.97;5076310;28;20035;-75
2023/10/04 10:38:40;;;;;;;9.27;4.20;;;;;;;17.70;67.49;102440.91;5076299;28;20044;-75
2023/10/04 10:41:09;;;;;;;9.98;3.80;;;;;;;17.84;67.61;102446.38;5058074;28;20036;-75
2023/10/04 10:43:35;;;;;;;16.10;4.40;;;;;;;17.57;69.08;102436.28;5067096;28;20028;-75
2023/10/04 10:46:28;;;;;;;12.38;4.32;;;;;;;16.93;70.79;102437.47;5057321;28;20036;-75
2023/10/04 10:48:59;;;;;;;11.85;4.22;;;;;;;16.63;72.98;102440.38;5074948;28;20021;-75
2023/10/04 10:51:45;;;;;;;12.05;4.20;;;;;;;16.63;74.03;102440.38;5040864;28;20032;-75
2023/10/04 10:54:11;;;;;;;9.87;3.80;;;;;;;16.62;74.17;102433.28;5059755;28;20045;-75
2023/10/04 10:56:39;;;;;;;10.05;3.70;;;;;;;17.17;72.26;102429.84;5057380;28;20037;-75
2023/10/04 10:59:05;;;;;;;11.32;3.65;;;;;;;17.57;69.84;102430.81;5073960;28;20031;-76
2023/10/04 11:01:31;;;;;;;10.75;4.05;;;;;;;17.19;69.76;102436.78;5073245;28;20058;-75
2023/10/04 11:03:58;;;;;;;9.32;4.00;;;;;;;17.16;69.01;102439.06;5075411;28;20028;-74
2023/10/04 11:06:23;;;;;;;9.65;3.67;;;;;;;16.87;70.15;102427.38;5075118;28;20035;-75
2023/10/04 11:08:48;;;;;;;11.52;4.18;;;;;;;16.78;70.66;102427.50;5073410;28;20473;-75
2023/10/04 11:11:14;;;;;;;11.65;3.80;;;;;;;17.22;70.49;102428.19;5056389;28;20024;-75
2023/10/04 11:13:43;;;;;;;12.77;3.72;;;;;;;17.26;70.68;102425.91;5056813;28;20361;-75
2023/10/04 11:16:09;;;;;;;12.07;3.92;;;;;;;17.61;68.41;102424.97;5073631;28;20068;-73
2023/10/04 11:18:35;;;;;;;10.82;4.00;;;;;;;18.00;65.97;102423.41;5075151;28;20083;-74
2023/10/04 11:21:03;;;;;;;12.70;4.03;;;;;;;17.91;66.40;102416.47;5090319;28;20017;-74
2023/10/04 11:23:29;;;;;;;8.90;3.75;;;;;;;17.82;66.16;102415.81;5066742;28;20082;-73
2023/10/04 11:25:58;;;;;;;8.98;3.42;;;;;;;17.48;67.24;102426.63;5058359;28;20035;-74
2023/10/04 11:28:26;;;;;;;9.63;3.90;;;;;;;17.11;68.53;102432.34;5074018;28;20040;-74